createdAt,value
2022-12-29T00:02:19.583Z,100112.91
2022-12-29T00:04:46.051Z,100110.44
2022-12-29T00:07:12.820Z,100101.78
2022-12-29T00:09:39.293Z,100089.50
2022-12-29T00:12:06.122Z,100096.56
2022-12-29T00:14:51.061Z,100088.41
2022-12-29T00:17:17.517Z,100087.84
2022-12-29T00:20:03.531Z,100089.09
2022-12-29T00:22:48.470Z,100080.97
2022-12-29T00:25:33.574Z,100077.88
2022-12-29T00:28:18.632Z,100072.38
2022-12-29T00:31:03.640Z,100065.03
2022-12-29T00:33:50.577Z,100071.78
2022-12-29T00:36:28.548Z,100068.69
2022-12-29T00:39:20.395Z,100069.47
2022-12-29T00:42:09.030Z,100058.44
2022-12-29T00:44:35.515Z,100053.69
2022-12-29T00:47:05.393Z,100059.38
2022-12-29T00:49:32.431Z,100053.41
2022-12-29T00:52:23.579Z,100042.97
2022-12-29T00:54:50.086Z,100039.91
2022-12-29T00:57:16.562Z,100031.31
2022-12-29T00:59:44.815Z,100022.69
2022-12-29T01:02:11.822Z,100021.16
2022-12-29T01:04:38.711Z,100017.47
2022-12-29T01:07:05.547Z,100015.34
2022-12-29T01:09:51.750Z,100014.88
2022-12-29T01:12:38.259Z,100014.72
2022-12-29T01:15:05.831Z,100001.50
2022-12-29T01:17:32.203Z,100001.50
2022-12-29T01:19:58.643Z,100005.16
2022-12-29T01:22:25.036Z,100003.94
2022-12-29T01:24:51.480Z,100001.91
2022-12-29T01:27:18.014Z,100002.50
2022-12-29T01:29:44.619Z,99989.56
2022-12-29T01:32:11.124Z,100011.22
2022-12-29T01:34:37.557Z,99992.97
2022-12-29T01:37:03.955Z,99999.84
2022-12-29T01:39:30.469Z,99986.34
2022-12-29T01:41:56.914Z,99994.47
2022-12-29T01:44:50.120Z,100002.75
2022-12-29T01:47:24.317Z,99996.78
2022-12-29T01:49:54.312Z,100002.28
2022-12-29T01:52:20.758Z,99989.81
2022-12-29T01:54:54.048Z,100009.34
2022-12-29T01:57:25.201Z,100007.78
2022-12-29T01:59:57.486Z,100011.44
2022-12-29T02:02:25.644Z,100014.84
2022-12-29T02:04:54.675Z,100011.44
2022-12-29T02:07:25.605Z,100018.19
2022-12-29T02:09:54.188Z,100014.03
2022-12-29T02:12:23.878Z,100009.16
2022-12-29T02:14:56.728Z,100007.31
2022-12-29T02:17:44.933Z,100015.88
2022-12-29T02:20:32.956Z,100009.91
2022-12-29T02:23:34.536Z,100014.03
2022-12-29T02:26:17.284Z,100012.03
2022-12-29T02:29:04.912Z,100022.47
2022-12-29T02:31:59.033Z,100015.41
2022-12-29T02:34:41.950Z,100021.38
2022-12-29T02:37:20.849Z,100014.94
2022-12-29T02:40:17.380Z,100011.09
2022-12-29T02:43:28.980Z,100008.00
2022-12-29T02:46:05.701Z,99996.63
2022-12-29T02:48:40.675Z,100010.72
2022-12-29T02:51:25.056Z,99998.00
2022-12-29T02:54:11.895Z,100006.88
2022-12-29T02:56:38.409Z,99990.47
2022-12-29T02:59:05.717Z,99999.81
2022-12-29T03:01:38.164Z,100000.28
2022-12-29T03:04:14.304Z,99991.44
2022-12-29T03:07:12.217Z,99998.75
2022-12-29T03:09:57.565Z,100004.06
2022-12-29T03:13:07.597Z,100009.28
2022-12-29T03:16:06.686Z,99999.94
2022-12-29T03:18:57.364Z,100006.34
2022-12-29T03:22:11.413Z,100009.78
2022-12-29T03:24:43.077Z,99996.78
2022-12-29T03:27:14.567Z,100007.19
2022-12-29T03:29:47.001Z,99993.59
2022-12-29T03:32:16.191Z,99984.41
2022-12-29T03:34:46.096Z,99989.28
2022-12-29T03:37:16.086Z,99980.50
2022-12-29T03:39:45.362Z,99969.13
2022-12-29T03:42:16.354Z,99979.38
2022-12-29T03:44:45.963Z,99984.38
2022-12-29T03:47:14.078Z,99978.69
2022-12-29T03:49:40.974Z,99995.56
2022-12-29T03:52:07.437Z,99984.38
2022-12-29T03:54:34.028Z,99980.25
2022-12-29T03:57:00.674Z,99983.44
2022-12-29T03:59:27.114Z,99991.81
2022-12-29T04:01:53.914Z,99976.78
2022-12-29T04:04:20.446Z,99984.59
2022-12-29T04:06:46.899Z,99988.56
2022-12-29T04:09:13.445Z,99977.47
2022-12-29T04:11:39.970Z,99969.19
2022-12-29T04:14:06.601Z,99980.66
2022-12-29T04:16:36.541Z,99970.72
2022-12-29T04:19:03.663Z,99978.84
2022-12-29T04:21:30.137Z,99986.66
2022-12-29T04:23:56.647Z,100004.06
2022-12-29T04:26:23.201Z,99999.66
2022-12-29T04:28:49.718Z,100010.06
2022-12-29T04:31:16.218Z,100005.63
2022-12-29T04:33:42.716Z,100004.56
2022-12-29T04:36:09.853Z,100012.56
2022-12-29T04:38:36.717Z,100013.94
2022-12-29T04:41:04.182Z,100019.41
2022-12-29T04:43:30.752Z,100025.97
2022-12-29T04:45:57.324Z,100023.38
2022-12-29T04:48:23.817Z,100033.09
2022-12-29T04:50:50.732Z,100018.81
2022-12-29T04:53:18.502Z,100022.97
2022-12-29T04:55:45.458Z,100025.28
2022-12-29T04:58:14.156Z,100026.03
2022-12-29T05:00:44.072Z,100025.84
2022-12-29T05:03:11.051Z,100032.41
2022-12-29T05:05:37.714Z,100042.81
2022-12-29T05:08:04.455Z,100038.09
2022-12-29T05:10:30.887Z,100037.06
2022-12-29T05:12:59.184Z,100053.16
2022-12-29T05:15:25.751Z,100059.41
2022-12-29T05:17:52.336Z,100049.59
2022-12-29T05:20:19.294Z,100048.63
2022-12-29T05:22:46.109Z,100048.13
2022-12-29T05:25:12.574Z,100037.25
2022-12-29T05:27:39.603Z,100059.38
2022-12-29T05:30:06.731Z,100048.22
2022-12-29T05:32:34.195Z,100063.28
2022-12-29T05:35:00.725Z,100064.03
2022-12-29T05:37:28.222Z,100047.66
2022-12-29T05:39:54.972Z,100047.66
2022-12-29T05:42:21.431Z,100059.38
2022-12-29T05:44:51.130Z,100053.63
2022-12-29T05:47:19.176Z,100043.50
2022-12-29T05:49:47.921Z,100031.25
2022-12-29T05:52:14.366Z,100043.97
2022-12-29T05:54:41.026Z,100045.06
2022-12-29T05:57:07.921Z,100057.28
2022-12-29T05:59:34.331Z,100061.72
2022-12-29T06:02:00.905Z,100073.69
2022-12-29T06:04:27.636Z,100073.69
2022-12-29T06:06:54.027Z,100070.13
2022-12-29T06:09:20.489Z,100078.09
2022-12-29T06:11:46.864Z,100078.56
2022-12-29T06:14:13.357Z,100096.63
2022-12-29T06:16:40.042Z,100094.09
2022-12-29T06:19:06.468Z,100101.50
2022-12-29T06:21:33.531Z,100086.19
2022-12-29T06:24:00.005Z,100087.22
2022-12-29T06:26:26.514Z,100084.72
2022-12-29T06:28:52.970Z,100097.44
2022-12-29T06:31:19.559Z,100087.63
2022-12-29T06:33:49.664Z,100092.34
2022-12-29T06:36:16.674Z,100102.53
2022-12-29T06:38:44.188Z,100109.09
2022-12-29T06:41:10.649Z,100103.47
2022-12-29T06:43:39.190Z,100107.13
2022-12-29T06:46:06.536Z,100110.78
2022-12-29T06:48:33.155Z,100111.06
2022-12-29T06:50:59.602Z,100123.28
2022-12-29T06:53:26.111Z,100113.97
2022-12-29T06:55:52.708Z,100103.56
2022-12-29T06:58:19.673Z,100096.78
2022-12-29T07:00:46.187Z,100097.28
2022-12-29T07:03:21.628Z,100100.16
2022-12-29T07:05:48.094Z,100105.38
2022-12-29T07:08:16.120Z,100106.72
2022-12-29T07:10:43.883Z,100129.09
2022-12-29T07:13:10.335Z,100133.84
2022-12-29T07:15:39.972Z,100122.25
2022-12-29T07:18:07.645Z,100123.66
2022-12-29T07:20:34.315Z,100117.00
2022-12-29T07:23:01.207Z,100118.13
2022-12-29T07:25:27.666Z,100128.13
2022-12-29T07:27:58.070Z,100136.19
2022-12-29T07:30:24.570Z,100134.50
2022-12-29T07:32:50.975Z,100133.00
2022-12-29T07:35:19.777Z,100140.88
2022-12-29T07:37:46.278Z,100150.28
2022-12-29T07:40:13.726Z,100146.97
2022-12-29T07:42:40.741Z,100160.47
2022-12-29T07:45:08.162Z,100149.50
2022-12-29T07:47:34.606Z,100152.09
2022-12-29T07:50:01.151Z,100154.91
2022-12-29T07:52:27.582Z,100149.19
2022-12-29T07:54:54.077Z,100152.75
2022-12-29T07:57:22.249Z,100154.03
2022-12-29T07:59:51.561Z,100160.69
2022-12-29T08:02:18.151Z,100153.13
2022-12-29T08:04:45.064Z,100154.66
2022-12-29T08:07:11.489Z,100141.38
2022-12-29T08:09:37.941Z,100149.41
2022-12-29T08:12:04.724Z,100149.31
2022-12-29T08:14:31.311Z,100127.47
2022-12-29T08:16:57.888Z,100139.41
2022-12-29T08:19:24.397Z,100144.56
2022-12-29T08:21:51.195Z,100127.13
2022-12-29T08:24:17.880Z,100136.19
2022-12-29T08:26:44.577Z,100129.66
2022-12-29T08:29:11.084Z,100130.16
2022-12-29T08:31:37.678Z,100129.09
2022-12-29T08:34:06.917Z,100141.25
2022-12-29T08:36:33.412Z,100132.13
2022-12-29T08:39:00.015Z,100137.53
2022-12-29T08:41:30.371Z,100141.66
2022-12-29T08:44:16.917Z,100138.28
2022-12-29T08:46:44.494Z,100148.13
2022-12-29T08:49:11.070Z,100143.97
2022-12-29T08:51:37.676Z,100157.69
2022-12-29T08:54:04.387Z,100154.28
2022-12-29T08:56:31.030Z,100154.03
2022-12-29T08:58:57.515Z,100159.81
2022-12-29T09:01:24.201Z,100161.91
2022-12-29T09:06:40.573Z,100165.41
2022-12-29T09:09:07.376Z,100170.81
2022-12-29T09:11:33.846Z,100160.91
2022-12-29T09:14:01.267Z,100169.97
2022-12-29T09:16:28.194Z,100166.31
2022-12-29T09:18:55.045Z,100157.44
2022-12-29T09:21:22.058Z,100164.19
2022-12-29T09:23:49.345Z,100172.97
2022-12-29T09:26:15.909Z,100171.44
2022-12-29T09:28:46.938Z,100189.63
2022-12-29T09:31:14.405Z,100192.81
2022-12-29T09:33:41.472Z,100192.34
2022-12-29T09:36:09.150Z,100190.88
2022-12-29T09:38:35.628Z,100217.44
2022-12-29T09:41:18.605Z,100210.19
2022-12-29T09:44:14.310Z,100223.25
2022-12-29T09:46:54.859Z,100246.19
2022-12-29T09:49:27.901Z,100231.16
2022-12-29T09:52:00.958Z,100245.75
2022-12-29T09:54:40.108Z,100247.88
2022-12-29T09:57:16.619Z,100243.44
2022-12-29T09:59:46.087Z,100242.69
2022-12-29T10:02:50.984Z,100265.50
2022-12-29T10:05:26.154Z,100251.72
2022-12-29T10:08:17.492Z,100256.16
2022-12-29T10:10:53.075Z,100267.84
2022-12-29T10:13:42.761Z,100258.69
2022-12-29T10:16:32.630Z,100267.25
2022-12-29T10:19:23.055Z,100264.88
2022-12-29T10:22:04.744Z,100281.25
2022-12-29T10:24:35.047Z,100291.16
2022-12-29T10:27:02.227Z,100280.47
2022-12-29T10:29:34.959Z,100287.66
2022-12-29T10:32:06.836Z,100290.75
2022-12-29T10:34:46.343Z,100322.53
2022-12-29T10:37:38.497Z,100310.09
2022-12-29T10:40:19.704Z,100311.66
2022-12-29T10:42:53.044Z,100318.38
2022-12-29T10:45:23.009Z,100317.03
2022-12-29T10:48:07.302Z,100328.78
2022-12-29T10:50:34.275Z,100322.53
2022-12-29T10:53:19.159Z,100340.66
2022-12-29T10:55:46.974Z,100348.22
2022-12-29T10:58:15.807Z,100349.78
2022-12-29T11:00:44.046Z,100352.66
2022-12-29T11:03:37.549Z,100355.25
2022-12-29T11:06:16.823Z,100370.84
2022-12-29T11:08:53.848Z,100366.69
2022-12-29T11:11:33.083Z,100378.66
2022-12-29T11:14:25.810Z,100380.19
2022-12-29T11:17:00.789Z,100383.09
2022-12-29T11:19:30.372Z,100383.28
2022-12-29T11:22:14.031Z,100388.72
2022-12-29T11:24:49.132Z,100395.91
2022-12-29T11:27:23.676Z,100395.00
2022-12-29T11:29:52.273Z,100402.19
2022-12-29T11:32:27.905Z,100404.94
2022-12-29T11:34:57.067Z,100407.34
2022-12-29T11:37:39.911Z,100406.84
2022-12-29T11:40:18.039Z,100417.88
2022-12-29T11:42:57.904Z,100414.84
2022-12-29T11:45:27.452Z,100415.94
2022-12-29T11:48:01.192Z,100422.28
2022-12-29T11:50:32.288Z,100420.72
2022-12-29T11:53:07.270Z,100421.66
2022-12-29T11:55:34.354Z,100427.34
2022-12-29T11:58:05.196Z,100431.50
2022-12-29T12:00:41.234Z,100433.09
2022-12-29T12:03:28.035Z,100432.09
2022-12-29T12:06:02.531Z,100423.53
2022-12-29T12:08:38.116Z,100439.00
2022-12-29T12:11:15.702Z,100447.63
2022-12-29T12:14:07.853Z,100446.84
2022-12-29T12:16:59.947Z,100445.56
2022-12-29T12:19:56.028Z,100440.59
2022-12-29T12:22:32.276Z,100453.53
2022-12-29T12:25:14.171Z,100448.56
2022-12-29T12:27:51.879Z,100442.31
2022-12-29T12:30:21.689Z,100452.16
2022-12-29T12:32:51.109Z,100447.19
2022-12-29T12:35:28.258Z,100448.19
2022-12-29T12:38:19.602Z,100465.78
2022-12-29T12:41:14.384Z,100462.41
2022-12-29T12:44:01.324Z,100460.03
2022-12-29T12:46:57.436Z,100461.03
2022-12-29T12:49:42.892Z,100462.28
2022-12-29T12:52:40.853Z,100467.50
2022-12-29T12:55:19.631Z,100464.53
2022-12-29T12:58:01.408Z,100461.94
2022-12-29T13:00:35.100Z,100468.22
2022-12-29T13:03:24.583Z,100475.72
2022-12-29T13:06:07.209Z,100471.84
2022-12-29T13:09:18.288Z,100477.56
2022-12-29T13:12:18.438Z,100479.16
2022-12-29T13:14:57.370Z,100488.25
2022-12-29T13:17:31.494Z,100491.66
2022-12-29T13:20:16.479Z,100482.84
2022-12-29T13:23:20.519Z,100496.34
2022-12-29T13:26:26.435Z,100489.66
2022-12-29T13:29:24.547Z,100491.19
2022-12-29T13:32:03.573Z,100490.69
2022-12-29T13:34:41.973Z,100494.91
2022-12-29T13:37:16.589Z,100502.50
2022-12-29T13:39:53.627Z,100505.88
2022-12-29T13:42:20.752Z,100499.63
2022-12-29T13:44:51.845Z,100509.53
2022-12-29T13:47:34.337Z,100509.53
2022-12-29T13:50:04.500Z,100505.09
2022-12-29T13:53:26.619Z,100511.09
2022-12-29T13:55:57.380Z,100502.78
2022-12-29T13:59:15.911Z,100509.53
2022-12-29T14:02:11.348Z,100508.53
2022-12-29T14:05:22.240Z,100502.56
2022-12-29T14:07:50.691Z,100499.22
2022-12-29T14:10:56.623Z,100510.97
2022-12-29T14:13:26.086Z,100525.78
2022-12-29T14:15:55.824Z,100528.72
2022-12-29T14:18:25.256Z,100532.66
2022-12-29T14:20:57.953Z,100532.94
2022-12-29T14:23:38.993Z,100532.75
2022-12-29T14:26:05.627Z,100535.38
2022-12-29T14:28:39.767Z,100526.56
2022-12-29T14:31:31.873Z,100538.56
2022-12-29T14:34:06.828Z,100533.69
2022-12-29T14:36:43.867Z,100539.97
2022-12-29T14:39:42.246Z,100553.00
2022-12-29T14:42:13.927Z,100559.78
2022-12-29T14:44:52.791Z,100547.63
2022-12-29T14:47:35.346Z,100554.41
2022-12-29T14:50:30.877Z,100554.69
2022-12-29T14:53:04.113Z,100549.50
2022-12-29T14:55:50.860Z,100558.09
2022-12-29T14:58:22.350Z,100542.50
2022-12-29T15:00:49.883Z,100547.72
2022-12-29T15:03:46.395Z,100559.16
2022-12-29T15:06:17.908Z,100562.53
2022-12-29T15:09:00.515Z,100556.56
2022-12-29T15:11:52.955Z,100551.38
2022-12-29T15:14:41.198Z,100555.78
2022-12-29T15:17:31.954Z,100561.75
2022-12-29T15:20:00.744Z,100553.69
2022-12-29T15:22:28.413Z,100554.47
2022-12-29T15:24:56.777Z,100566.41
2022-12-29T15:27:27.803Z,100550.31
2022-12-29T15:30:21.647Z,100550.81
2022-12-29T15:32:49.795Z,100565.88
2022-12-29T15:35:35.641Z,100563.28
2022-12-29T15:38:16.778Z,100567.41
2022-12-29T15:40:45.942Z,100557.78
2022-12-29T15:43:39.465Z,100580.94
2022-12-29T15:46:08.676Z,100582.50
2022-12-29T15:48:36.463Z,100573.13
2022-12-29T15:51:03.054Z,100584.03
2022-12-29T15:54:05.830Z,100585.63
2022-12-29T15:56:37.454Z,100589.78
2022-12-29T15:59:03.906Z,100585.63
2022-12-29T16:01:35.833Z,100600.19
2022-12-29T16:04:07.819Z,100593.41
2022-12-29T16:06:46.276Z,100606.41
2022-12-29T16:09:18.451Z,100602.28
2022-12-29T16:12:03.108Z,100609.00
2022-12-29T16:14:45.493Z,100606.16
2022-12-29T16:17:34.246Z,100612.41
2022-12-29T16:20:04.127Z,100617.63
2022-12-29T16:22:39.847Z,100615.28
2022-12-29T16:25:32.632Z,100621.25
2022-12-29T16:28:00.766Z,100618.94
2022-12-29T16:30:43.283Z,100613.75
2022-12-29T16:33:37.800Z,100623.13
2022-12-29T16:36:23.479Z,100627.81
2022-12-29T16:38:52.347Z,100619.75
2022-12-29T16:41:32.202Z,100631.47
2022-12-29T16:44:18.114Z,100636.16
2022-12-29T16:47:02.985Z,100636.16
2022-12-29T16:49:32.265Z,100633.59
2022-12-29T16:51:59.007Z,100635.97
2022-12-29T16:54:36.039Z,100633.13
2022-12-29T16:57:02.963Z,100631.09
2022-12-29T16:59:48.504Z,100627.72
2022-12-29T17:02:19.049Z,100646.44
2022-12-29T17:04:49.374Z,100643.06
2022-12-29T17:07:25.390Z,100651.38
2022-12-29T17:09:54.209Z,100664.88
2022-12-29T17:12:30.409Z,100663.34
2022-12-29T17:15:14.339Z,100657.63
2022-12-29T17:17:43.482Z,100661.78
2022-12-29T17:20:21.420Z,100666.97
2022-12-29T17:22:48.589Z,100681.50
2022-12-29T17:25:19.775Z,100680.75
2022-12-29T17:27:55.534Z,100689.03
2022-12-29T17:30:29.715Z,100687.75
2022-12-29T17:33:03.195Z,100700.97
2022-12-29T17:35:29.806Z,100700.72
2022-12-29T17:37:56.294Z,100707.97
2022-12-29T17:40:28.786Z,100708.22
2022-12-29T17:42:57.428Z,100722.75
2022-12-29T17:45:39.133Z,100717.31
2022-12-29T17:48:12.716Z,100717.31
2022-12-29T17:50:39.159Z,100725.34
2022-12-29T17:53:15.949Z,100727.69
2022-12-29T17:55:42.815Z,100731.84
2022-12-29T17:58:19.920Z,100727.16
2022-12-29T18:01:03.502Z,100727.13
2022-12-29T18:03:35.829Z,100739.56
2022-12-29T18:06:06.492Z,100740.38
2022-12-29T18:08:34.888Z,100743.47
2022-12-29T18:11:02.038Z,100743.16
2022-12-29T18:13:41.947Z,100738.25
2022-12-29T18:16:15.851Z,100729.69
2022-12-29T18:18:42.725Z,100733.28
2022-12-29T18:21:16.961Z,100740.81
2022-12-29T18:23:44.104Z,100739.50
2022-12-29T18:26:23.718Z,100753.78
2022-12-29T18:28:53.887Z,100748.06
2022-12-29T18:31:30.814Z,100769.56
2022-12-29T18:34:04.022Z,100760.50
2022-12-29T18:36:33.231Z,100752.97
2022-12-29T18:38:59.769Z,100762.03
2022-12-29T18:41:30.382Z,100754.53
2022-12-29T18:43:58.036Z,100754.00
2022-12-29T18:46:24.658Z,100763.56
2022-12-29T18:48:58.037Z,100768.25
2022-12-29T18:51:27.422Z,100778.13
2022-12-29T18:53:58.415Z,100775.00
2022-12-29T18:56:40.196Z,100779.66
2022-12-29T18:59:06.682Z,100782.53
2022-12-29T19:01:34.854Z,100790.84
2022-12-29T19:04:03.579Z,100792.91
2022-12-29T19:06:30.035Z,100792.91
2022-12-29T19:08:58.899Z,100802.47
2022-12-29T19:11:26.074Z,100800.69
2022-12-29T19:13:52.501Z,100811.03
2022-12-29T19:16:21.788Z,100806.38
2022-12-29T19:19:04.068Z,100807.94
2022-12-29T19:21:40.112Z,100811.03
2022-12-29T19:24:06.921Z,100806.09
2022-12-29T19:26:40.306Z,100813.13
2022-12-29T19:29:14.479Z,100815.19
2022-12-29T19:31:40.994Z,100815.19
2022-12-29T19:34:13.071Z,100821.94
2022-12-29T19:36:41.491Z,100811.56
2022-12-29T19:41:50.390Z,100818.31
2022-12-29T19:46:47.717Z,100821.41
2022-12-29T19:49:14.241Z,100810.22
2022-12-29T19:51:40.720Z,100812.53
2022-12-29T19:54:10.189Z,100814.13
2022-12-29T19:56:37.981Z,100818.50
2022-12-29T19:59:06.759Z,100817.72
2022-12-29T20:01:53.377Z,100822.91
2022-12-29T20:04:19.948Z,100826.56
2022-12-29T20:06:53.905Z,100834.59
2022-12-29T20:14:43.197Z,100827.03
2022-12-29T20:18:02.267Z,100833.00
2022-12-29T20:20:21.117Z,100843.34
2022-12-29T20:23:14.908Z,100831.13
2022-12-29T20:25:57.290Z,100835.78
2022-12-29T20:28:27.556Z,100839.66
2022-12-29T20:31:07.739Z,100852.38
2022-12-29T20:33:54.291Z,100854.91
2022-12-29T20:39:08.343Z,100865.81
2022-12-29T20:41:35.432Z,100858.31
2022-12-29T20:44:01.943Z,100858.56
2022-12-29T20:46:35.065Z,100874.41
2022-12-29T20:49:08.045Z,100869.00
2022-12-29T20:52:03.992Z,100874.75
2022-12-29T20:54:24.707Z,100876.84
2022-12-29T20:57:11.472Z,100871.69
2022-12-29T20:59:38.099Z,100880.50
2022-12-29T21:02:04.843Z,100880.78
2022-12-29T21:05:13.535Z,100877.41
2022-12-29T21:07:50.792Z,100884.69
2022-12-29T21:10:17.890Z,100888.88
2022-12-29T21:12:48.508Z,100888.63
2022-12-29T21:15:15.641Z,100889.94
2022-12-29T21:17:43.985Z,100891.47
2022-12-29T21:20:21.833Z,100883.44
2022-12-29T21:22:50.974Z,100890.94
2022-12-29T21:25:17.696Z,100893.53
2022-12-29T21:27:46.420Z,100901.31
2022-12-29T21:30:13.657Z,100893.28
2022-12-29T21:32:41.133Z,100898.72
2022-12-29T21:35:11.135Z,100901.56
2022-12-29T21:37:41.433Z,100899.72
2022-12-29T21:40:11.407Z,100909.03
2022-12-29T21:42:38.419Z,100923.75
2022-12-29T21:45:27.593Z,100916.47
2022-12-29T21:48:24.514Z,100922.41
2022-12-29T21:51:29.965Z,100928.34
2022-12-29T21:54:19.937Z,100929.13
2022-12-29T21:56:48.021Z,100926.47
2022-12-29T21:59:36.433Z,100942.53
2022-12-29T22:02:23.301Z,100942.53
2022-12-29T22:05:08.492Z,100940.19
2022-12-29T22:07:59.441Z,100940.69
2022-12-29T22:10:44.931Z,100940.41
2022-12-29T22:13:11.463Z,100949.69
2022-12-29T22:15:58.245Z,100953.31
2022-12-29T22:18:32.247Z,100955.34
2022-12-29T22:21:00.101Z,100967.31
2022-12-29T22:23:29.691Z,100959.22
2022-12-29T22:25:56.168Z,100970.56
2022-12-29T22:28:22.968Z,100971.59
2022-12-29T22:30:49.464Z,100972.88
2022-12-29T22:33:16.144Z,100968.72
2022-12-29T22:35:42.574Z,100976.97
2022-12-29T22:38:09.274Z,100989.38
2022-12-29T22:40:35.718Z,100997.94
2022-12-29T22:43:03.725Z,101003.91
2022-12-29T22:45:32.089Z,101010.09
2022-12-29T22:47:58.732Z,101013.97
2022-12-29T22:50:26.234Z,101016.56
2022-12-29T22:52:53.198Z,101024.56
2022-12-29T22:55:19.660Z,101019.16
2022-12-29T22:57:46.061Z,101015.00
2022-12-29T23:00:13.296Z,101020.97
2022-12-29T23:02:40.044Z,101021.44
2022-12-29T23:05:07.322Z,101032.84
2022-12-29T23:07:35.341Z,101039.81
2022-12-29T23:10:02.781Z,101041.16
2022-12-29T23:12:30.917Z,101052.53
2022-12-29T23:14:57.404Z,101053.06
2022-12-29T23:17:25.138Z,101043.97
2022-12-29T23:19:54.608Z,101046.56
2022-12-29T23:22:21.129Z,101040.03
2022-12-29T23:24:51.156Z,101051.22
2022-12-29T23:27:32.058Z,101053.00
2022-12-29T23:29:58.494Z,101053.97
2022-12-29T23:32:24.981Z,101058.13
2022-12-29T23:34:51.376Z,101056.81
2022-12-29T23:37:17.889Z,101071.53
2022-12-29T23:39:44.268Z,101074.13
2022-12-29T23:42:12.297Z,101070.78
2022-12-29T23:44:38.860Z,101067.63
2022-12-29T23:47:05.391Z,101070.97
2022-12-29T23:49:32.094Z,101070.19
2022-12-29T23:51:58.554Z,101076.59
2022-12-29T23:54:25.491Z,101081.78
2022-12-29T23:56:51.939Z,101081.25
2022-12-29T23:59:18.365Z,101083.06
